Time;durP1;ratioP1;P1;durP2;ratioP2;P2;SDS_P1;SDS_P2;PMS_P1;PMS_P2;Temp;Humidity;BMP_temperature;BMP_pressure;BME280_temperature;BME280_humidity;BME280_pressure;Samples;Min_cycle;Max_cycle;Signal;HPM_P1;HPM_P2
2022/03/01 00:00:25;;;;;;;9.55;6.57;;;;;;;;;;5073500;28;20100;-58
2022/03/01 00:02:51;;;;;;;11.57;6.72;;;;;;;;;;5072937;28;20044;-58
2022/03/01 00:05:16;;;;;;;10.32;6.57;;;;;;;;;;5073083;28;20437;-58
2022/03/01 00:07:43;;;;;;;9.55;6.03;;;;;;;;;;5073141;28;20025;-58
2022/03/01 00:10:09;;;;;;;10.82;6.93;;;;;;;;;;5072975;28;20082;-58
2022/03/01 00:12:35;;;;;;;10.07;6.85;;;;;;;;;;5072959;28;20526;-58
2022/03/01 00:15:01;;;;;;;9.98;6.15;;;;;;;;;;5072919;28;20108;-58
2022/03/01 00:17:27;;;;;;;9.40;5.97;;;;;;;;;;5072828;28;20115;-58
2022/03/01 00:19:53;;;;;;;9.48;5.72;;;;;;;;;;5072869;28;20036;-58
2022/03/01 00:22:19;;;;;;;9.85;6.13;;;;;;;;;;5072851;28;20032;-58
2022/03/01 00:24:45;;;;;;;8.38;5.70;;;;;;;;;;5072763;28;20035;-58
2022/03/01 00:27:11;;;;;;;8.52;5.88;;;;;;;;;;5072639;28;20463;-58
2022/03/01 00:29:37;;;;;;;8.18;5.70;;;;;;;;;;5071366;28;20446;-58
2022/03/01 00:32:03;;;;;;;9.90;5.93;;;;;;;;;;5071267;28;20398;-58
2022/03/01 00:34:29;;;;;;;9.25;6.10;;;;;;;;;;5072816;28;20154;-58
2022/03/01 00:36:55;;;;;;;8.45;5.78;;;;;;;;;;5072471;28;20504;-59
2022/03/01 00:39:21;;;;;;;10.65;6.70;;;;;;;;;;5072547;28;20052;-58
2022/03/01 00:41:47;;;;;;;9.20;6.03;;;;;;;;;;5072464;28;20032;-58
2022/03/01 00:44:14;;;;;;;8.65;5.45;;;;;;;;;;5072688;28;20016;-58
2022/03/01 00:46:40;;;;;;;7.15;5.50;;;;;;;;;;5072427;28;20032;-58
2022/03/01 00:49:06;;;;;;;9.23;6.00;;;;;;;;;;5072664;28;20426;-58
2022/03/01 00:51:32;;;;;;;6.65;5.25;;;;;;;;;;5072382;28;20024;-58
2022/03/01 00:53:58;;;;;;;7.00;5.07;;;;;;;;;;5072304;28;20116;-58
2022/03/01 00:56:24;;;;;;;7.65;5.53;;;;;;;;;;5072221;28;20503;-59
2022/03/01 00:58:50;;;;;;;8.32;5.88;;;;;;;;;;5072335;28;20104;-57
2022/03/01 01:01:16;;;;;;;8.75;5.80;;;;;;;;;;5072141;28;20506;-57
2022/03/01 01:03:42;;;;;;;7.47;5.65;;;;;;;;;;5072028;28;20465;-57
2022/03/01 01:06:08;;;;;;;8.25;5.72;;;;;;;;;;5072000;28;20021;-56
2022/03/01 01:08:34;;;;;;;8.40;6.10;;;;;;;;;;5071415;28;20443;-57
2022/03/01 01:11:00;;;;;;;7.93;6.10;;;;;;;;;;5072104;28;20059;-57
2022/03/01 01:13:26;;;;;;;8.23;5.85;;;;;;;;;;5072059;28;20453;-58
2022/03/01 01:15:52;;;;;;;8.30;5.60;;;;;;;;;;5072087;28;20039;-58
2022/03/01 01:18:18;;;;;;;8.95;5.60;;;;;;;;;;5072071;28;20037;-58
2022/03/01 01:20:44;;;;;;;7.20;5.30;;;;;;;;;;5072074;28;20028;-58
2022/03/01 01:23:10;;;;;;;6.82;5.50;;;;;;;;;;5071994;28;20040;-58
2022/03/01 01:25:36;;;;;;;8.18;5.55;;;;;;;;;;5072218;28;20027;-58
2022/03/01 01:28:02;;;;;;;8.25;5.53;;;;;;;;;;5071993;28;20021;-58
2022/03/01 01:30:33;;;;;;;7.35;5.70;;;16.30;90.80;;;;;;5072227;28;20029;-59
2022/03/01 01:32:59;;;;;;;6.00;4.95;;;;;;;;;;5072091;28;20024;-59
2022/03/01 01:35:27;;;;;;;7.97;5.47;;;;;;;;;;5071932;28;20426;-46
2022/03/01 01:37:53;;;;;;;7.38;5.65;;;;;;;;;;5071822;28;20036;-46
2022/03/01 01:40:21;;;;;;;7.38;5.38;;;;;;;;;;5072109;28;20016;-46
2022/03/01 01:42:47;;;;;;;9.07;5.20;;;;;;;;;;5071866;28;20070;-46
2022/03/01 01:45:14;;;;;;;7.78;5.40;;;;;;;;;;5071853;28;20033;-46
2022/03/01 01:47:40;;;;;;;7.57;5.25;;;;;;;;;;5071859;28;20272;-47
2022/03/01 01:50:06;;;;;;;9.15;5.72;;;;;;;;;;5072043;28;20028;-44
2022/03/01 01:52:32;;;;;;;8.52;5.70;;;;;;;;;;5071821;28;20478;-46
2022/03/01 01:54:58;;;;;;;6.70;4.80;;;;;;;;;;5071759;28;20033;-46
2022/03/01 01:57:25;;;;;;;9.10;5.82;;;;;;;;;;5071601;28;20044;-46
2022/03/01 01:59:53;;;;;;;6.15;5.47;;;;;;;;;;5071641;28;20024;-45
2022/03/01 02:02:20;;;;;;;8.75;5.70;;;;;;;;;;5071411;28;20052;-47
2022/03/01 02:04:46;;;;;;;7.35;5.32;;;;;;;;;;5071567;28;20025;-47
2022/03/01 02:07:13;;;;;;;8.32;5.53;;;16.10;90.70;;;;;;5071827;28;20391;-47
2022/03/01 02:09:39;;;;;;;6.75;5.00;;;;;;;;;;5071557;28;20039;-46
2022/03/01 02:12:05;;;;;;;9.60;5.90;;;;;;;;;;5071699;28;20046;-46
2022/03/01 02:14:32;;;;;;;8.57;5.60;;;;;;;;;;5071484;28;20032;-46
2022/03/01 02:17:03;;;;;;;6.68;4.90;;;;;;;;;;5071487;28;20127;-46
2022/03/01 02:19:30;;;;;;;8.93;5.65;;;;;;;;;;5073894;28;20013;-46
2022/03/01 02:21:56;;;;;;;6.88;5.13;;;;;;;;;;5075066;28;20044;-46
2022/03/01 02:24:24;;;;;;;7.22;4.95;;;;;;;;;;5075047;28;20504;-47
2022/03/01 02:26:55;;;;;;;6.88;5.60;;;;;;;;;;5075026;28;20024;-47
2022/03/01 02:29:21;;;;;;;5.95;4.65;;;;;;;;;;5075094;28;20099;-46
2022/03/01 02:31:47;;;;;;;10.10;5.50;;;;;;;;;;5074897;28;20103;-46
2022/03/01 02:34:13;;;;;;;7.13;4.82;;;;;;;;;;5074904;28;20103;-47
2022/03/01 02:36:39;;;;;;;8.00;5.60;;;;;;;;;;5074680;28;20500;-47
2022/03/01 02:39:05;;;;;;;9.48;5.97;;;;;;;;;;5074806;28;20020;-47
2022/03/01 02:41:31;;;;;;;7.22;5.00;;;;;;;;;;5074712;28;20055;-46
2022/03/01 02:43:57;;;;;;;8.05;5.30;;;;;;;;;;5074967;28;20035;-46
2022/03/01 02:46:23;;;;;;;7.10;5.05;;;;;;;;;;5074693;28;20395;-46
2022/03/01 02:48:49;;;;;;;6.93;4.85;;;;;;;;;;5074620;28;20024;-46
2022/03/01 02:51:15;;;;;;;8.50;5.03;;;;;;;;;;5074570;28;20159;-46
2022/03/01 02:53:41;;;;;;;8.68;5.28;;;;;;;;;;5074554;28;20031;-46
2022/03/01 02:56:07;;;;;;;7.82;5.53;;;;;;;;;;5074464;28;20395;-47
2022/03/01 02:58:33;;;;;;;7.95;5.50;;;;;;;;;;5074430;28;20029;-48
2022/03/01 03:00:59;;;;;;;8.82;5.53;;;;;;;;;;5074682;28;20428;-46
2022/03/01 03:03:25;;;;;;;6.35;5.15;;;;;;;;;;5074178;28;20116;-46
2022/03/01 03:05:51;;;;;;;6.47;4.88;;;;;;;;;;5074342;28;20028;-46
2022/03/01 03:08:17;;;;;;;6.82;4.63;;;;;;;;;;5074321;28;20039;-46
2022/03/01 03:10:43;;;;;;;5.68;4.65;;;;;;;;;;5074209;28;20497;-46
2022/03/01 03:13:09;;;;;;;7.40;5.07;;;;;;;;;;5074139;28;20036;-47
2022/03/01 03:15:34;;;;;;;6.15;4.93;;;;;;;;;;5074126;28;20047;-46
2022/03/01 03:18:00;;;;;;;7.15;5.30;;;;;;;;;;5073992;28;20064;-46
2022/03/01 03:20:26;;;;;;;7.60;5.25;;;;;;;;;;5074023;28;20032;-48
2022/03/01 03:22:52;;;;;;;6.45;4.93;;;;;;;;;;5073952;28;20033;-46
2022/03/01 03:25:18;;;;;;;7.35;5.22;;;;;;;;;;5074077;28;20076;-47
2022/03/01 03:27:44;;;;;;;6.55;4.82;;;;;;;;;;5073877;28;20122;-46
2022/03/01 03:30:10;;;;;;;7.03;5.25;;;;;;;;;;5072941;28;20475;-46
2022/03/01 03:32:37;;;;;;;7.18;5.20;;;;;;;;;;5073804;28;20429;-46
2022/03/01 03:35:04;;;;;;;5.78;4.30;;;;;;;;;;5073746;28;20471;-48
2022/03/01 03:37:30;;;;;;;6.75;5.13;;;;;;;;;;5073616;28;20044;-47
2022/03/01 03:39:56;;;;;;;6.55;4.97;;;;;;;;;;5073629;28;20032;-46
2022/03/01 03:42:22;;;;;;;5.68;5.00;;;;;;;;;;5073971;28;20374;-46
2022/03/01 03:44:48;;;;;;;6.60;4.63;;;;;;;;;;5073539;28;20028;-46
2022/03/01 03:47:14;;;;;;;7.25;5.32;;;;;;;;;;5073515;28;20475;-47
2022/03/01 03:49:40;;;;;;;6.68;4.68;;;;;;;;;;5072233;28;20038;-46
2022/03/01 03:52:06;;;;;;;7.05;5.30;;;;;;;;;;5073315;28;20029;-46
2022/03/01 03:54:32;;;;;;;6.63;4.53;;;;;;;;;;5073594;28;20413;-46
2022/03/01 03:56:58;;;;;;;6.15;4.70;;;;;;;;;;5073430;28;20376;-46
2022/03/01 03:59:24;;;;;;;6.85;4.78;;;;;;;;;;5073325;28;20036;-47
2022/03/01 04:01:51;;;;;;;6.47;4.88;;;;;;;;;;5073074;28;20124;-46
2022/03/01 04:04:17;;;;;;;7.88;5.20;;;;;;;;;;5073413;28;20086;-46
2022/03/01 04:06:43;;;;;;;7.45;4.90;;;;;;;;;;5073038;28;20024;-46
2022/03/01 04:09:09;;;;;;;6.75;5.00;;;;;;;;;;5073008;28;20543;-47
2022/03/01 04:11:35;;;;;;;6.28;4.60;;;;;;;;;;5073016;28;20032;-46
2022/03/01 04:14:01;;;;;;;6.78;5.07;;;;;;;;;;5072918;28;20467;-46
2022/03/01 04:16:27;;;;;;;6.32;4.82;;;;;;;;;;5072882;28;20500;-46
2022/03/01 04:18:54;;;;;;;6.38;4.30;;;;;;;;;;5072935;28;20047;-46
2022/03/01 04:21:20;;;;;;;4.93;4.15;;;;;;;;;;5072897;28;20025;-46
2022/03/01 04:23:46;;;;;;;7.18;4.72;;;;;;;;;;5072808;28;20028;-46
2022/03/01 04:26:12;;;;;;;6.05;4.85;;;;;;;;;;5072704;28;20036;-46
2022/03/01 04:28:38;;;;;;;5.65;4.50;;;;;;;;;;5072685;28;20028;-46
2022/03/01 04:31:04;;;;;;;7.25;4.60;;;;;;;;;;5072633;28;20032;-46
2022/03/01 04:33:30;;;;;;;6.65;4.75;;;;;;;;;;5072619;28;20024;-46
2022/03/01 04:35:59;;;;;;;5.47;4.05;;;;;;;;;;5072464;28;20482;-46
2022/03/01 04:38:25;;;;;;;6.25;4.80;;;;;;;;;;5072702;28;20032;-46
2022/03/01 04:40:52;;;;;;;6.50;4.72;;;;;;;;;;5072399;28;20447;-46
2022/03/01 04:43:18;;;;;;;7.28;4.78;;;;;;;;;;5072385;28;20521;-46
2022/03/01 04:45:44;;;;;;;7.20;4.90;;;;;;;;;;5072420;28;20032;-45
2022/03/01 04:48:11;;;;;;;5.60;4.43;;;;;;;;;;5072379;28;20016;-46
2022/03/01 04:50:37;;;;;;;5.82;4.47;;;;;;;;;;5072404;28;20024;-46
2022/03/01 04:53:03;;;;;;;7.95;4.88;;;;;;;;;;5072313;28;20035;-47
2022/03/01 04:55:29;;;;;;;7.30;5.07;;;;;;;;;;5072383;28;20028;-46
2022/03/01 04:57:55;;;;;;;5.45;4.07;;;;;;;;;;5072368;28;20093;-46
2022/03/01 05:00:21;;;;;;;8.35;4.75;;;;;;;;;;5072246;28;20028;-46
2022/03/01 05:02:47;;;;;;;5.95;5.00;;;;;;;;;;5071879;28;20059;-46
2022/03/01 05:05:14;;;;;;;5.85;4.47;;;;;;;;;;5072244;28;20117;-46
2022/03/01 05:07:41;;;;;;;6.00;4.22;;;;;;;;;;5072220;28;20060;-46
2022/03/01 05:10:13;;;;;;;6.18;4.72;;;;;;;;;;5072109;28;20467;-46
2022/03/01 05:12:43;;;;;;;7.10;4.57;;;;;;;;;;5072217;28;20082;-47
2022/03/01 05:15:10;;;;;;;5.90;4.32;;;;;;;;;;5072393;28;20107;-46
2022/03/01 05:17:37;;;;;;;5.93;4.38;;;;;;;;;;5072222;28;20143;-46
2022/03/01 05:20:04;;;;;;;8.43;4.85;;;;;;;;;;5072091;28;20079;-47
2022/03/01 05:22:30;;;;;;;5.47;3.88;;;;;;;;;;5072290;28;20044;-46
2022/03/01 05:24:56;;;;;;;6.10;3.92;;;;;;;;;;5071952;28;20486;-46
2022/03/01 05:27:22;;;;;;;7.03;4.30;;;;;;;;;;5071948;28;20036;-46
2022/03/01 05:29:48;;;;;;;5.35;3.90;;;;;;;;;;5072036;28;20024;-46
2022/03/01 05:32:14;;;;;;;6.35;4.15;;;;;;;;;;5072236;28;20028;-46
2022/03/01 05:34:40;;;;;;;5.85;4.38;;;;;;;;;;5072024;28;20471;-46
2022/03/01 05:37:06;;;;;;;5.45;3.92;;;;;;;;;;5071829;28;20548;-46
2022/03/01 05:39:32;;;;;;;5.53;4.05;;;;;;;;;;5071903;28;20463;-46
2022/03/01 05:41:58;;;;;;;5.95;4.47;;;;;;;;;;5071894;28;20062;-46
2022/03/01 05:44:24;;;;;;;5.72;4.57;;;;;;;;;;5071803;28;20028;-46
2022/03/01 05:46:50;;;;;;;4.45;4.05;;;;;;;;;;5071800;28;20052;-46
2022/03/01 05:49:16;;;;;;;7.05;4.45;;;;;;;;;;5071721;28;20477;-46
2022/03/01 05:51:42;;;;;;;5.70;4.25;;;;;;;;;;5071906;28;20028;-46
2022/03/01 05:54:08;;;;;;;5.72;4.32;;;;;;;;;;5073861;28;20024;-47
2022/03/01 05:56:34;;;;;;;6.60;4.40;;;;;;;;;;5075469;28;20047;-46
2022/03/01 05:59:00;;;;;;;6.70;4.30;;;;;;;;;;5075623;28;20099;-48
2022/03/01 06:01:26;;;;;;;7.15;4.60;;;;;;;;;;5075390;28;20029;-46
2022/03/01 06:03:52;;;;;;;6.10;4.63;;;;;;;;;;5075381;28;20533;-46
2022/03/01 06:06:19;;;;;;;5.68;4.28;;;;;;;;;;5075654;28;20519;-46
2022/03/01 06:08:45;;;;;;;6.35;4.65;;;;;;;;;;5075413;28;20025;-46
2022/03/01 06:11:12;;;;;;;5.45;4.07;;;;;;;;;;5075411;28;20035;-47
2022/03/01 06:13:38;;;;;;;7.93;4.40;;;;;;;;;;5075523;28;20437;-47
2022/03/01 06:16:04;;;;;;;5.45;4.25;;;;;;;;;;5075186;28;20067;-46
2022/03/01 06:18:30;;;;;;;4.93;4.15;;;;;;;;;;5075156;28;20044;-46
2022/03/01 06:20:56;;;;;;;6.65;4.32;;;;;;;;;;5075159;28;20052;-47
2022/03/01 06:23:22;;;;;;;6.25;4.13;;;;;;;;;;5075068;28;20074;-47
2022/03/01 06:25:48;;;;;;;5.68;3.85;;;;;;;;;;5075098;28;20020;-48
2022/03/01 06:28:14;;;;;;;6.72;3.97;;;;;;;;;;5075048;28;20067;-46
2022/03/01 06:30:40;;;;;;;6.25;4.18;;;;;;;;;;5075019;28;20085;-46
2022/03/01 06:33:06;;;;;;;6.75;4.32;;;;;;;;;;5074945;28;20029;-46
2022/03/01 06:35:32;;;;;;;7.55;4.30;;;;;;;;;;5074837;28;20040;-46
2022/03/01 06:37:58;;;;;;;6.38;4.43;;;;;;;;;;5074792;28;20043;-47
2022/03/01 06:40:24;;;;;;;5.57;4.10;;;;;;;;;;5074767;28;20552;-46
2022/03/01 06:42:50;;;;;;;6.38;4.35;;;;;;;;;;5074708;28;20100;-46
2022/03/01 06:45:16;;;;;;;6.22;4.32;;;;;;;;;;5074803;28;20106;-47
2022/03/01 06:47:43;;;;;;;6.43;4.10;;;;;;;;;;5074634;28;20029;-47
2022/03/01 06:50:09;;;;;;;5.47;3.95;;;15.20;92.10;;;;;;5074585;28;20078;-47
2022/03/01 06:52:35;;;;;;;4.82;3.97;;;;;;;;;;5074554;28;20133;-46
2022/03/01 06:55:02;;;;;;;5.63;4.30;;;;;;;;;;5074527;28;20036;-47
2022/03/01 06:57:28;;;;;;;6.03;4.30;;;;;;;;;;5074332;28;20048;-48
2022/03/01 06:59:54;;;;;;;5.95;4.78;;;;;;;;;;5074392;28;20028;-48
2022/03/01 07:02:20;;;;;;;6.50;3.63;;;;;;;;;;5074118;28;20050;-47
2022/03/01 07:04:46;;;;;;;9.52;4.65;;;;;;;;;;5073169;28;20028;-46
2022/03/01 07:07:12;;;;;;;7.25;4.20;;;;;;;;;;5074179;28;20048;-46
2022/03/01 07:09:38;;;;;;;7.40;4.78;;;;;;;;;;5074208;28;20036;-46
2022/03/01 07:12:04;;;;;;;6.63;4.38;;;;;;;;;;5074279;28;20035;-46
2022/03/01 07:14:30;;;;;;;4.25;3.85;;;;;;;;;;5074192;28;20478;-46
2022/03/01 07:16:56;;;;;;;8.32;4.70;;;;;;;;;;5074014;28;20119;-46
2022/03/01 07:19:22;;;;;;;6.32;3.97;;;;;;;;;;5074078;28;20100;-46
2022/03/01 07:21:48;;;;;;;5.97;4.13;;;;;;;;;;5074093;28;20064;-46
2022/03/01 07:24:14;;;;;;;6.35;4.53;;;;;;;;;;5073987;28;20031;-48
2022/03/01 07:26:40;;;;;;;8.23;4.68;;;;;;;;;;5074083;28;20021;-46
2022/03/01 07:29:06;;;;;;;13.38;4.90;;;;;;;;;;5073951;28;20085;-46
2022/03/01 07:31:32;;;;;;;6.45;4.13;;;;;;;;;;5073925;28;20458;-46
2022/03/01 07:33:58;;;;;;;8.80;4.60;;;;;;;;;;5073856;28;20056;-47
2022/03/01 07:36:24;;;;;;;7.03;4.72;;;;;;;;;;5073818;28;20064;-47
2022/03/01 07:38:50;;;;;;;11.25;4.50;;;;;;;;;;5073756;28;20483;-46
2022/03/01 07:41:16;;;;;;;8.32;4.70;;;;;;;;;;5073813;28;20442;-46
2022/03/01 07:43:41;;;;;;;8.82;4.63;;;;;;;;;;5073717;28;20040;-46
2022/03/01 07:46:11;;;;;;;7.57;4.47;;;;;;;;;;5073692;28;20025;-47
2022/03/01 07:48:40;;;;;;;7.55;4.82;;;;;;;;;;5073634;28;20020;-46
2022/03/01 07:51:06;;;;;;;6.57;4.32;;;;;;;;;;5073577;28;20383;-48
2022/03/01 07:53:32;;;;;;;7.47;4.22;;;;;;;;;;5073578;28;20027;-47
2022/03/01 07:55:58;;;;;;;5.32;4.47;;;;;;;;;;5073487;28;20035;-47
2022/03/01 07:58:24;;;;;;;6.38;4.45;;;;;;;;;;5073346;28;20487;-46
2022/03/01 08:00:50;;;;;;;7.00;3.72;;;;;;;;;;5073434;28;20029;-46
2022/03/01 08:03:16;;;;;;;8.10;4.50;;;;;;;;;;5073053;28;20131;-47
2022/03/01 08:05:42;;;;;;;6.88;4.47;;;;;;;;;;5073207;28;20020;-47
2022/03/01 08:08:08;;;;;;;8.45;4.50;;;;;;;;;;5073449;28;20028;-47
2022/03/01 08:10:34;;;;;;;5.07;4.22;;;;;;;;;;5073410;28;20029;-48
2022/03/01 08:13:00;;;;;;;5.78;3.92;;;;;;;;;;5073503;28;20166;-46
2022/03/01 08:15:27;;;;;;;5.82;4.15;;;;;;;;;;5073109;28;20436;-47
2022/03/01 08:17:54;;;;;;;6.80;4.38;;;;;;;;;;5072800;28;20394;-46
2022/03/01 08:20:20;;;;;;;4.63;3.90;;;;;;;;;;5073099;28;20016;-48
2022/03/01 08:22:46;;;;;;;4.15;3.40;;;;;;;;;;5072687;28;20049;-47
2022/03/01 08:25:14;;;;;;;5.97;4.13;;;;;;;;;;5072757;28;20029;-47
2022/03/01 08:27:40;;;;;;;5.00;4.28;;;;;;;;;;5072858;28;20031;-47
2022/03/01 08:30:06;;;;;;;5.15;3.63;;;;;;;;;;5072555;28;20095;-47
2022/03/01 08:32:33;;;;;;;6.07;4.10;;;;;;;;;;5072765;28;20032;-49
2022/03/01 08:34:59;;;;;;;6.00;4.45;;;;;;;;;;5072612;28;20394;-49
2022/03/01 08:37:26;;;;;;;6.43;4.07;;;;;;;;;;5072930;28;20036;-48
2022/03/01 08:39:52;;;;;;;5.63;4.32;;;;;;;;;;5073044;28;20356;-47
2022/03/01 08:42:18;;;;;;;5.35;4.00;;;;;;;;;;5072950;28;20048;-48
2022/03/01 08:44:44;;;;;;;5.03;3.53;;;;;;;;;;5072854;28;20025;-47
2022/03/01 08:47:10;;;;;;;5.80;4.50;;;;;;;;;;5072529;28;20024;-49
2022/03/01 08:49:36;;;;;;;6.20;4.47;;;;;;;;;;5072566;28;20395;-48
2022/03/01 08:52:02;;;;;;;6.35;4.75;;;;;;;;;;5072482;28;20072;-46
2022/03/01 08:54:28;;;;;;;6.97;4.63;;;;;;;;;;5072493;28;20609;-47
2022/03/01 08:56:54;;;;;;;6.38;5.05;;;;;;;;;;5072474;28;20103;-48
2022/03/01 08:59:20;;;;;;;11.57;4.55;;;;;;;;;;5072354;28;20039;-49
2022/03/01 09:01:46;;;;;;;6.03;4.25;;;;;;;;;;5072208;28;20024;-46
2022/03/01 09:04:12;;;;;;;6.63;4.25;;;;;;;;;;5072431;28;20441;-47
2022/03/01 09:06:38;;;;;;;8.20;4.80;;;;;;;;;;5072649;28;20056;-47
2022/03/01 09:09:04;;;;;;;8.38;5.05;;;;;;;;;;5072286;28;20470;-47
2022/03/01 09:11:30;;;;;;;8.05;4.75;;;;;;;;;;5072639;28;20028;-48
2022/03/01 09:13:56;;;;;;;7.25;5.40;;;;;;;;;;5072388;28;20094;-47
2022/03/01 09:16:22;;;;;;;7.18;4.93;;;;;;;;;;5072131;28;20486;-47
2022/03/01 09:18:48;;;;;;;8.07;5.22;;;;;;;;;;5072252;28;20064;-46
2022/03/01 09:21:14;;;;;;;7.40;4.68;;;;;;;;;;5072086;28;20020;-47
2022/03/01 09:23:41;;;;;;;9.20;4.70;;;;;;;;;;5072165;28;20452;-48
2022/03/01 09:26:07;;;;;;;8.25;5.07;;;;;;;;;;5072140;28;20051;-47
2022/03/01 09:28:33;;;;;;;8.27;5.05;;;;;;;;;;5073569;28;20386;-48
2022/03/01 09:30:59;;;;;;;9.88;5.50;;;;;;;;;;5076285;28;20031;-48
2022/03/01 09:33:25;;;;;;;7.55;4.72;;;;;;;;;;5076235;28;20029;-49
2022/03/01 09:35:51;;;;;;;8.32;5.13;;;;;;;;;;5076173;28;20028;-48
2022/03/01 09:38:17;;;;;;;7.43;5.07;;;;;;;;;;5076127;28;20035;-47
2022/03/01 09:40:47;;;;;;;8.40;5.40;;;;;;;;;;5075937;28;20559;-48
2022/03/01 09:43:14;;;;;;;7.90;5.13;;;;;;;;;;5076283;28;20025;-47
2022/03/01 09:45:40;;;;;;;8.82;5.10;;;;;;;;;;5076222;28;20040;-49
2022/03/01 09:48:06;;;;;;;7.35;5.45;;;;;;;;;;5075961;28;20045;-48
2022/03/01 09:50:32;;;;;;;6.85;5.20;;;;;;;;;;5075986;28;20530;-49
2022/03/01 09:53:00;;;;;;;10.55;5.75;;;;;;;;;;5075918;28;20060;-49
2022/03/01 09:55:26;;;;;;;7.63;5.28;;;;;;;;;;5075682;28;20024;-48
2022/03/01 09:57:52;;;;;;;6.82;4.85;;;;;;;;;;5075739;28;20044;-48
2022/03/01 10:00:18;;;;;;;8.48;5.18;;;;;;;;;;5075942;28;20025;-47
2022/03/01 10:02:46;;;;;;;6.55;4.68;;;;;;;;;;5075464;28;20044;-48
2022/03/01 10:05:14;;;;;;;6.82;4.85;;;;;;;;;;5075596;28;20032;-48
2022/03/01 10:07:46;;;;;;;5.82;4.22;;;;;;;;;;5075844;28;20032;-49
2022/03/01 10:10:19;;;;;;;6.50;5.10;;;;;;;;;;5075480;28;20039;-59
2022/03/01 10:12:53;;;;;;;7.15;4.85;;;;;;;;;;5075750;28;20047;-58
2022/03/01 10:15:29;;;;;;;5.85;4.57;;;;;;;;;;5075560;28;20038;-59
2022/03/01 10:17:55;;;;;;;8.68;5.20;;;;;;;;;;5075504;28;20044;-58
2022/03/01 10:20:21;;;;;;;7.80;5.00;;;;;;;;;;5075505;28;20419;-59
2022/03/01 10:22:53;;;;;;;9.10;5.13;;;;;;;;;;5075233;28;20421;-59
2022/03/01 10:25:20;;;;;;;8.07;4.90;;;;;;;;;;5075158;28;20467;-59
2022/03/01 10:27:49;;;;;;;7.75;5.15;;;;;;;;;;5075167;28;20029;-60
2022/03/01 10:30:24;;;;;;;8.70;5.72;;;;;;;;;;5075158;28;20086;-59
2022/03/01 10:32:50;;;;;;;6.70;4.95;;;;;;;;;;5075319;28;20115;-59
2022/03/01 10:35:16;;;;;;;7.15;4.95;;;;;;;;;;5075054;28;20451;-59
2022/03/01 10:37:42;;;;;;;6.55;4.32;;;;;;;;;;5075186;28;20043;-59
2022/03/01 10:40:17;;;;;;;7.15;4.65;;;;;;;;;;5074671;28;20029;-58
2022/03/01 10:42:43;;;;;;;9.43;5.35;;;;;;;;;;5074947;28;20028;-58
2022/03/01 10:45:09;;;;;;;5.82;4.80;;;;;;;;;;5075199;28;20031;-59
2022/03/01 10:47:37;;;;;;;6.80;4.68;;;;;;;;;;5074821;28;20032;-59
2022/03/01 10:50:08;;;;;;;7.45;5.20;;;;;;;;;;5075039;28;20090;-59
2022/03/01 10:52:39;;;;;;;6.32;5.20;;;;;;;;;;5075010;28;20036;-59
2022/03/01 10:55:06;;;;;;;;;;;;;;;;;;5075199;28;20024;-59
2022/03/01 10:57:32;;;;;;;5.63;4.70;;;;;;;;;;5074589;28;19912;-59
2022/03/01 10:59:58;;;;;;;10.10;5.57;;;;;;;;;;5074855;28;20389;-59
2022/03/01 11:02:24;;;;;;;6.88;5.35;;;;;;;;;;5074367;28;20053;-58
2022/03/01 11:04:53;;;;;;;6.45;4.82;;;;;;;;;;5074556;28;20036;-59
2022/03/01 11:07:21;;;;;;;6.70;5.40;;;;;;;;;;5074508;28;20024;-59
2022/03/01 11:09:48;;;;;;;9.40;4.97;;;;;;;;;;5074664;28;20063;-59
2022/03/01 11:12:18;;;;;;;7.75;5.13;;;;;;;;;;5074428;28;20036;-59
2022/03/01 11:14:44;;;;;;;7.20;5.30;;;;;;;;;;5074290;28;20035;-59
2022/03/01 11:17:34;;;;;;;8.77;5.72;;;;;;;;;;5074193;28;20108;-59
2022/03/01 11:20:05;;;;;;;8.10;5.25;;;14.80;91.30;;;;;;5074242;28;20021;-59
2022/03/01 11:22:33;;;;;;;;;;;;;;;;;;5075280;28;20021;-59
2022/03/01 11:24:59;;;;;;;9.07;5.10;;;;;;;;;;5074506;28;19908;-59
2022/03/01 11:27:26;;;;;;;7.15;5.00;;;;;;;;;;5073958;28;20028;-59
2022/03/01 11:29:52;;;;;;;7.75;5.00;;;;;;;;;;5073538;28;20029;-59
2022/03/01 11:32:25;;;;;;;6.85;5.07;;;;;;;;;;5074101;28;20093;-59
2022/03/01 11:35:01;;;;;;;6.03;4.35;;;14.70;91.70;;;;;;5073786;28;20094;-60
2022/03/01 11:37:27;;;;;;;6.20;4.47;;;;;;;;;;5073913;28;20028;-59
2022/03/01 11:40:04;;;;;;;7.50;4.97;;;;;;;;;;5073585;28;20044;-58
2022/03/01 11:42:36;;;;;;;6.32;5.22;;;;;;;;;;5073996;28;20411;-59
2022/03/01 11:45:13;;;;;;;7.35;4.65;;;;;;;;;;5073691;28;20036;-59
2022/03/01 11:47:39;;;;;;;6.63;4.75;;;;;;;;;;5073507;28;20028;-59
2022/03/01 11:50:16;;;;;;;8.00;5.82;;;;;;;;;;5073446;28;20078;-59
2022/03/01 11:52:51;;;;;;;6.50;5.38;;;;;;;;;;5072907;28;20026;-59
2022/03/01 11:55:20;;;;;;;8.50;5.32;;;;;;;;;;5073551;28;20478;-59
2022/03/01 11:57:46;;;;;;;8.18;5.30;;;;;;;;;;5073313;28;20024;-59
2022/03/01 12:00:26;;;;;;;10.45;6.85;;;;;;;;;;5073513;28;20086;-58
2022/03/01 12:02:52;;;;;;;8.90;5.28;;;;;;;;;;5073617;28;20048;-59
2022/03/01 12:05:27;;;;;;;10.65;5.75;;;;;;;;;;5073356;28;20495;-59
2022/03/01 12:07:53;;;;;;;10.60;5.03;;;;;;;;;;5073603;28;20372;-59
2022/03/01 12:10:25;;;;;;;6.28;4.50;;;;;;;;;;5073467;28;20029;-59
2022/03/01 12:12:54;;;;;;;8.05;6.00;;;14.90;91.70;;;;;;5073469;28;20104;-59
2022/03/01 12:15:32;;;;;;;7.93;5.00;;;;;;;;;;5073117;28;20020;-59
2022/03/01 12:17:58;;;;;;;8.18;5.53;;;;;;;;;;5073030;28;20028;-59
2022/03/01 12:20:25;;;;;;;6.45;5.28;;;;;;;;;;5073040;28;20062;-59
2022/03/01 12:22:58;;;;;;;6.35;4.50;;;;;;;;;;5072979;28;20032;-59
2022/03/01 12:25:25;;;;;;;8.95;5.45;;;;;;;;;;5072955;28;20180;-60
2022/03/01 12:27:51;;;;;;;7.22;5.18;;;;;;;;;;5073092;28;20031;-59
2022/03/01 12:30:25;;;;;;;7.80;5.43;;;;;;;;;;5072830;28;20028;-60
2022/03/01 12:32:54;;;;;;;8.10;4.88;;;;;;;;;;5073103;28;20032;-59
2022/03/01 12:35:20;;;;;;;7.05;4.82;;;;;;;;;;5072994;28;20421;-59
2022/03/01 12:37:46;;;;;;;6.22;4.82;;;;;;;;;;5073044;28;20382;-47
2022/03/01 12:40:14;;;;;;;4.47;3.85;;;;;;;;;;5072592;28;20043;-46
2022/03/01 12:42:40;;;;;;;7.20;4.78;;;;;;;;;;5072623;28;20028;-48
2022/03/01 12:45:06;;;;;;;6.97;4.60;;;;;;;;;;5072849;28;20086;-48
2022/03/01 12:47:32;;;;;;;5.55;4.15;;;;;;;;;;5072873;28;20028;-48
2022/03/01 12:49:58;;;;;;;7.63;3.90;;;;;;;;;;5072577;28;20371;-49
2022/03/01 12:52:25;;;;;;;6.75;3.92;;;;;;;;;;5072863;28;20037;-48
2022/03/01 12:54:52;;;;;;;6.28;4.05;;;;;;;;;;5072640;28;20372;-47
2022/03/01 12:57:18;;;;;;;6.50;3.75;;;;;;;;;;5072703;28;20043;-48
2022/03/01 12:59:46;;;;;;;7.35;4.28;;;;;;;;;;5072693;28;20437;-47
2022/03/01 13:02:16;;;;;;;5.97;3.85;;;;;;;;;;5072163;28;20109;-49
2022/03/01 13:04:43;;;;;;;5.90;4.45;;;;;;;;;;5072498;28;20024;-49
2022/03/01 13:07:09;;;;;;;5.10;3.80;;;;;;;;;;5072441;28;20032;-48
2022/03/01 13:09:36;;;;;;;5.30;4.20;;;;;;;;;;5072514;28;20387;-47
2022/03/01 13:12:02;;;;;;;6.35;4.10;;;;;;;;;;5072374;28;20104;-48
2022/03/01 13:14:29;;;;;;;7.07;4.10;;;;;;;;;;5072290;28;20032;-49
2022/03/01 13:16:57;;;;;;;5.78;4.45;;;;;;;;;;5072571;28;20060;-48
2022/03/01 13:19:28;;;;;;;5.72;4.38;;;;;;;;;;5072150;28;20033;-49
2022/03/01 13:21:57;;;;;;;4.82;4.00;;;;;;;;;;5072427;28;20017;-47
2022/03/01 13:24:31;;;;;;;4.93;4.05;;;;;;;;;;5072443;28;20033;-48
2022/03/01 13:27:00;;;;;;;6.93;4.28;;;;;;;;;;5072182;28;20399;-46
2022/03/01 13:29:29;;;;;;;7.38;3.97;;;;;;;;;;5071943;28;20021;-47
2022/03/01 13:32:13;;;;;;;5.22;4.05;;;;;;;;;;5072007;28;20051;-47
2022/03/01 13:34:42;;;;;;;4.57;3.78;;;;;;;;;;5072100;28;20074;-46
2022/03/01 13:37:17;;;;;;;5.90;3.70;;;;;;;;;;5072022;28;20021;-47
2022/03/01 13:39:45;;;;;;;7.85;4.03;;;;;;;;;;5071944;28;20032;-47
2022/03/01 13:42:13;;;;;;;5.78;3.88;;;;;;;;;;5071837;28;20028;-49
2022/03/01 13:44:42;;;;;;;5.65;3.90;;;;;;;;;;5071898;28;20027;-48
2022/03/01 13:47:12;;;;;;;6.78;4.35;;;;;;;;;;5071828;28;20503;-47
2022/03/01 13:49:44;;;;;;;5.40;3.67;;;;;;;;;;5071971;28;20068;-48
2022/03/01 13:52:21;;;;;;;17.48;4.18;;;;;;;;;;5071975;28;20540;-47
2022/03/01 13:55:00;;;;;;;6.45;3.78;;;;;;;;;;5071963;28;20029;-46
2022/03/01 13:57:29;;;;;;;7.00;4.75;;;;;;;;;;5071714;28;20036;-47
2022/03/01 14:00:01;;;;;;;7.97;4.15;;;;;;;;;;5071796;28;20036;-47
2022/03/01 14:02:28;;;;;;;5.85;3.92;;;;;;;;;;5071650;28;20131;-47
2022/03/01 14:05:13;;;;;;;5.05;4.15;;;;;;;;;;5071940;28;20028;-47
2022/03/01 14:07:39;;;;;;;5.55;3.88;;;;;;;;;;5071631;28;20552;-47
2022/03/01 14:10:05;;;;;;;5.63;4.10;;;;;;;;;;5072011;28;20024;-47
2022/03/01 14:12:32;;;;;;;5.95;4.15;;;;;;;;;;5071906;28;20443;-47
2022/03/01 14:14:58;;;;;;;8.45;4.53;;;;;;;;;;5073364;28;20025;-47
2022/03/01 14:17:26;;;;;;;6.38;4.38;;;;;;;;;;5075555;28;20059;-47
2022/03/01 14:19:57;;;;;;;5.55;3.72;;;;;;;;;;5075284;28;20075;-49
2022/03/01 14:22:24;;;;;;;5.38;3.95;;;;;;;;;;5075230;28;20082;-47
2022/03/01 14:24:57;;;;;;;5.65;3.95;;;;;;;;;;5075278;28;20033;-44
2022/03/01 14:27:23;;;;;;;5.78;4.35;;;;;;;;;;5075205;28;20021;-48
2022/03/01 14:29:49;;;;;;;5.25;3.88;;;;;;;;;;5075087;28;20036;-46
2022/03/01 14:32:15;;;;;;;8.35;4.50;;;;;;;;;;5075346;28;20027;-47
2022/03/01 14:34:42;;;;;;;6.53;4.68;;;;;;;;;;5074983;28;20033;-48
2022/03/01 14:37:12;;;;;;;7.60;4.22;;;;;;;;;;5075321;28;20100;-47
2022/03/01 14:39:38;;;;;;;6.70;4.95;;;;;;;;;;5074979;28;20432;-47